Home > Products > Valid Products > TAF

000
FTUS41 KBUF 181800 AAA
TAFBUF
TAF AMD
KBUF 181817Z 1818/1918 27008KT P6SM -FZDZ OVC020
     FM190000 30008KT P6SM OVC020=



000
FTUS41 KBUF 181800 AAA
TAFART
TAF AMD
KART 181817Z 1818/1918 30008KT P6SM -FZDZ OVC015
     FM190000 33006KT P6SM OVC015=



000
FTUS41 KBUF 181800 AAA
TAFROC
TAF AMD
KROC 181817Z 1818/1918 30012G20KT P6SM -FZDZ OVC020
     FM190000 30011KT P6SM OVC012=



000
FTUS41 KBUF 181800 AAA
TAFIAG
TAF AMD
KIAG 181817Z 1818/1918 30010KT P6SM -FZDZ OVC020
     FM190000 30008KT P6SM OVC020=



000
FTUS41 KBUF 181800 AAA
TAFJHW
TAF AMD
KJHW 181817Z 1818/1918 28010KT 6SM -FZDZ OVC007
     FM190000 30009KT P6SM OVC007
     FM191000 30009KT P6SM OVC012
      AMD LTD TO CLD VIS AND WIND=



000
FTUS41 KBUF 181700
TAFIAG
TAF
KIAG 181730Z 1818/1918 30010KT P6SM OVC020=



000
FTUS41 KBUF 181700
TAFJHW
TAF
KJHW 181730Z 1818/1918 28010G18KT 6SM -SHSN OVC007
     FM190000 30009KT P6SM OVC007
     FM191000 30009KT P6SM OVC012
      AMD LTD TO CLD VIS AND WIND=



000
FTUS41 KBUF 181700
TAFART
TAF
KART 181730Z 1818/1918 30008KT P6SM OVC015
     FM190300 33006KT P6SM OVC015=



000
FTUS41 KBUF 181700
TAFROC
TAF
KROC 181730Z 1818/1918 30012G20KT P6SM OVC020
     FM190200 30011KT P6SM OVC012=



000
FTUS41 KBUF 181700
TAFBUF
TAF
KBUF 181730Z 1818/1918 27008KT P6SM OVC020
     FM190300 30008KT P6SM OVC020=



000
FTUS41 KBUF 181500 AAA
TAFART
TAF AMD
KART 181519Z 1815/1912 30007KT P6SM OVC020
     FM190900 34005KT P6SM OVC020=



000
FTUS41 KBUF 181500 AAA
TAFROC
TAF AMD
KROC 181519Z 1815/1912 30012G20KT P6SM OVC020
     FM182300 28012KT P6SM OVC020=



000
FTUS41 KBUF 181500 AAA
TAFBUF
TAF AMD
KBUF 181519Z 1815/1912 27011KT P6SM BKN012 OVC020
     FM182200 28009KT P6SM OVC020=



000
FTUS41 KBUF 181500 AAA
TAFIAG
TAF AMD
KIAG 181519Z 1815/1912 30011KT P6SM OVC025=



000
FTUS41 KBUF 181500 AAA
TAFJHW
TAF AMD
KJHW 181519Z 1815/1912 29012G16KT P6SM OVC012
     FM182300 28011KT P6SM OVC012
     FM191000 31008KT P6SM OVC012
      AMD LTD TO CLD VIS AND WIND=



000
FTUS41 KBUF 181100
TAFART
TAF
KART 181129Z 1812/1912 28011KT P6SM -SN OVC015
     FM181700 29008KT P6SM OVC015
     FM182200 30007KT P6SM OVC020
     FM190100 32006KT P6SM OVC025
     FM190900 34005KT P6SM OVC020
     FM191100 35006KT P6SM OVC100=



000
FTUS41 KBUF 181100
TAFIAG
TAF
KIAG 181129Z 1812/1912 26013KT P6SM BKN017 OVC025
     FM181400 28011KT P6SM OVC020
     FM181700 29011KT P6SM VCSH OVC020
     FM182200 29009KT P6SM OVC020
     FM190900 30008KT P6SM OVC120
     FM191000 30009KT P6SM OVC250=



000
FTUS41 KBUF 181100
TAFJHW
TAF
KJHW 181129Z 1812/1912 28012G16KT P6SM OVC014
     FM181600 28012KT 5SM -SHSN OVC012
     FM182300 28011KT 4SM -SHSN OVC012
     FM190200 30009KT 5SM -SHSN OVC012
     FM191000 31008KT P6SM OVC012
      AMD LTD TO CLD VIS AND WIND=



000
FTUS41 KBUF 181100
TAFROC
TAF
KROC 181129Z 1812/1912 28015G22KT P6SM OVC015
     FM181400 28015KT P6SM VCSH OVC020
     FM181600 28014KT P6SM OVC020
     FM182300 28012KT P6SM VCSH OVC020
     FM190400 30009KT P6SM OVC020=



000
FTUS41 KBUF 181100
TAFBUF
TAF
KBUF 181129Z 1812/1912 26011KT P6SM OVC015
     FM181400 27011KT P6SM VCSH OVC020
     FM182200 28009KT P6SM OVC020=



000
FTUS41 KBUF 180900 AAA
TAFJHW
TAF AMD
KJHW 180915Z 1809/1906 27009G14KT P6SM OVC012
     FM181500 28013KT 5SM -SHSN OVC012
     FM190000 28009KT 6SM -SHSN OVC012
     FM190100 28007KT P6SM OVC012
     FM190200 29006KT P6SM VCSH OVC012
      AMD LTD TO CLD VIS AND WIND=



000
FTUS41 KBUF 180900 AAA
TAFROC
TAF AMD
KROC 180915Z 1809/1906 26017G21KT P6SM FEW020 OVC035
     FM181400 28015KT P6SM VCSH OVC020
     FM181600 28015KT P6SM OVC020
     FM190100 29008KT P6SM OVC020=



000
FTUS41 KBUF 180900 AAA
TAFART
TAF AMD
KART 180915Z 1809/1906 27011G21KT 4SM -SN VCSH BKN008 OVC018
     FM181200 28011KT 5SM -SHSN OVC020
     FM181700 29008KT P6SM VCSH OVC030
     FM182200 30006KT P6SM OVC035
     FM190200 32005KT P6SM OVC050
     FM190500 33005KT P6SM OVC045=



000
FTUS41 KBUF 180900 AAA
TAFBUF
TAF AMD
KBUF 180915Z 1809/1906 26016G23KT P6SM OVC025
     FM181300 27011KT P6SM VCSH OVC020
     FM181700 29010KT P6SM OVC020
     FM190500 29006KT P6SM OVC020=



000
FTUS41 KBUF 180900 AAA
TAFIAG
TAF AMD
KIAG 180915Z 1809/1906 26013KT P6SM VCSH BKN019 BKN024 OVC030
     FM181100 28012G18KT P6SM VCSH OVC020
     FM181500 29011KT P6SM OVC020=



000
FTUS41 KBUF 180900 AAA
TAFIAG
TAF AMD
KIAG 180915Z 1809/1906 26013KT P6SM VCSH BKN019 BKN024 OVC030
     FM181100 28012G18KT P6SM VCSH OVC020
     FM181500 29011KT P6SM OVC020=



000
FTUS41 KBUF 180900 AAA
TAFART
TAF AMD
KART 180915Z 1809/1906 27011G21KT 4SM -SN VCSH BKN008 OVC018
     FM181200 28011KT 5SM -SHSN OVC020
     FM181700 29008KT P6SM VCSH OVC030
     FM182200 30006KT P6SM OVC035
     FM190200 32005KT P6SM OVC050
     FM190500 33005KT P6SM OVC045=



000
FTUS41 KBUF 180900 AAA
TAFROC
TAF AMD
KROC 180915Z 1809/1906 26017G21KT P6SM FEW020 OVC035
     FM181400 28015KT P6SM VCSH OVC020
     FM181600 28015KT P6SM OVC020
     FM190100 29008KT P6SM OVC020=



000
FTUS41 KBUF 180900 AAA
TAFJHW
TAF AMD
KJHW 180915Z 1809/1906 27009G14KT P6SM OVC012
     FM181500 28013KT 5SM -SHSN OVC012
     FM190000 28009KT 6SM -SHSN OVC012
     FM190100 28007KT P6SM OVC012
     FM190200 29006KT P6SM VCSH OVC012
      AMD LTD TO CLD VIS AND WIND=



000
FTUS41 KBUF 180900 AAA
TAFBUF
TAF AMD
KBUF 180915Z 1809/1906 26016G23KT P6SM OVC025
     FM181300 27011KT P6SM VCSH OVC020
     FM181700 29010KT P6SM OVC020
     FM190500 29006KT P6SM OVC020=



000
FTUS41 KBUF 180500
TAFBUF
TAF
KBUF 180523Z 1806/1906 26017G24KT P6SM BKN018 BKN060
     FM181300 27011KT P6SM VCSH OVC020
     FM181700 29010KT P6SM OVC020
     FM190500 29006KT P6SM OVC020=



000
FTUS41 KBUF 180500
TAFROC
TAF
KROC 180523Z 1806/1906 27013KT P6SM BKN015 OVC022
     FM181400 28015KT P6SM VCSH OVC020
     FM181600 28015KT P6SM OVC020
     FM190100 29008KT P6SM OVC020=



000
FTUS41 KBUF 180500
TAFART
TAF
KART 180523Z 1806/1906 26013KT P6SM SCT019 BKN025 OVC045
     FM180700 27012G18KT 5SM -SHSNRA OVC020
     FM180900 27012KT P6SM VCSH OVC020
     FM181200 28011KT 5SM -SHSN OVC020
     FM181700 29008KT P6SM VCSH OVC030
     FM182200 30006KT P6SM OVC035
     FM190200 32005KT P6SM OVC050
     FM190500 33005KT P6SM OVC045=



000
FTUS41 KBUF 180500
TAFJHW
TAF
KJHW 180523Z 1806/1906 27012KT P6SM BKN025 OVC030
     FM181500 28013KT 5SM -SHSN OVC012
     FM190000 28009KT 6SM -SHSN OVC012
     FM190100 28007KT P6SM OVC012
     FM190200 29006KT P6SM VCSH OVC012
      AMD LTD TO CLD VIS AND WIND=



000
FTUS41 KBUF 180500
TAFIAG
TAF
KIAG 180523Z 1806/1906 25017G25KT P6SM BKN018 BKN060
     FM180700 26015G22KT P6SM VCSH OVC020
     FM180900 26014G21KT P6SM VCSH OVC025
     FM181100 28012G18KT P6SM VCSH OVC020
     FM181500 29011KT P6SM OVC020=



000
FTUS41 KBUF 180300 AAB
TAFIAG
TAF AMD
KIAG 180303Z 1803/1824 26015KT 3SM -SN BR OVC015
     FM180330 27017KT P6SM VCSH OVC015
     FM181500 29011KT P6SM OVC012=



000
FTUS41 KBUF 180300 AAA
TAFJHW
TAF AMD
KJHW 180303Z 1803/1824 27014KT P6SM -SHSN OVC012
      AMD LTD TO CLD VIS AND WIND=



000
FTUS41 KBUF 180300 AAB
TAFBUF
TAF AMD
KBUF 180303Z 1803/1824 26018G28KT 4SM -SN BR BKN025
     FM180330 26016G25KT P6SM VCSH OVC015
     FM181500 27011KT P6SM VCSH OVC012=



000
FTUS41 KBUF 180300 AAA
TAFART
TAF AMD
KART 180303Z 1803/1824 25012G22KT P6SM -SHRASN OVC020
     FM180900 27012KT P6SM VCSH OVC015
     FM182100 30007KT P6SM OVC015=



000
FTUS41 KBUF 180300 AAA
TAFROC
TAF AMD
KROC 180303Z 1803/1824 26017G27KT 3SM -SN OVC015
     FM180400 26017G29KT P6SM VCSH OVC015
     FM181400 28015KT P6SM VCSH OVC012
     FM181600 28015KT P6SM OVC012=



000
FTUS41 KBUF 180100 AAA
TAFIAG
TAF AMD
KIAG 180154Z 1802/1824 26015KT 2SM -SHSN OVC025
     FM180330 27017KT P6SM VCSH OVC015
     FM181500 29011KT P6SM OVC012=



000
FTUS41 KBUF 180100 AAA
TAFIAG
TAF AMD
KIAG 180154Z 1802/1824 26015KT 2SM -SHSN OVC025
     FM180330 27017KT P6SM VCSH OVC015
     FM181500 29011KT P6SM OVC012=



000
FTUS41 KBUF 180100 AAA
TAFBUF
TAF AMD
KBUF 180151Z 1802/1824 26018G28KT 2SM -SN BR BKN025
     FM180330 26016G25KT P6SM VCSH OVC015
     FM181500 27011KT P6SM VCSH OVC012=



000
FTUS41 KBUF 180100 AAA
TAFBUF
TAF AMD
KBUF 180151Z 1802/1824 26018G28KT 2SM -SN BR BKN025
     FM180330 26016G25KT P6SM VCSH OVC015
     FM181500 27011KT P6SM VCSH OVC012=



000
FTUS41 KBUF 172300 RRA
TAFIAG
TAF
KIAG 172344Z 1800/1824 26018G28KT P6SM -SHSN OVC015
     FM181500 29011KT P6SM OVC012=



000
FTUS41 KBUF 172300 RRA
TAFROC
TAF
KROC 172344Z 1800/1824 26017G27KT P6SM -SHSN OVC015
     FM180300 26017G29KT P6SM VCSH OVC015
     FM181400 28015KT P6SM VCSH OVC012
     FM181600 28015KT P6SM OVC012=



000
FTUS41 KBUF 172300 RRA
TAFBUF
TAF
KBUF 172344Z 1800/1824 26018G28KT P6SM -SHSN OVC015
     FM180300 26016G25KT P6SM VCSH OVC015
     FM181500 27011KT P6SM VCSH OVC012=



000
FTUS41 KBUF 172300 RRA
TAFJHW
TAF
KJHW 172344Z 1800/1824 27014G23KT P6SM -SHSN OVC009
     FM180100 27014G23KT 4SM -SHSN OVC007
     FM181400 28013KT P6SM -SHSN OVC012
      AMD LTD TO CLD VIS AND WIND=



000
FTUS41 KBUF 172300 RRA
TAFART
TAF
KART 172344Z 1800/1824 25012G22KT P6SM -SHRASN OVC015
     FM180900 27012KT P6SM VCSH OVC015
     FM182100 30007KT P6SM OVC015=



000
FTUS41 KBUF 172000 AAB
TAFJHW
TAF AMD
KJHW 172042Z 1721/1818 26015G25KT 3SM -SHSN SCT008 OVC015
     FM181300 28011KT 4SM -SHSN OVC012
      AMD LTD TO CLD VIS AND WIND=



000
FTUS41 KBUF 172000 AAB
TAFROC
TAF AMD
KROC 172042Z 1721/1818 26017G30KT 5SM -SHRASN OVC020
     FM180000 26017G25KT 4SM -SHSN OVC012
     FM180900 27014G26KT P6SM VCSH OVC012
     FM181400 28013G19KT P6SM VCSH OVC012
     FM181600 28013KT P6SM OVC012=



000
FTUS41 KBUF 172000 AAB
TAFBUF
TAF AMD
KBUF 172042Z 1721/1818 25017G27KT P6SM -SHSN OVC012
     FM180900 27012G22KT P6SM VCSH OVC012
     FM181300 28010KT P6SM VCSH OVC012
     FM181700 28010KT P6SM OVC012=



000
FTUS41 KBUF 172000 AAA
TAFIAG
TAF AMD
KIAG 172042Z 1721/1818 25017G23KT 4SM -SHSN OVC020
     FM181000 27012G21KT P6SM VCSH OVC020
     FM181500 29011KT P6SM OVC012=



000
FTUS41 KBUF 172000 AAB
TAFART
TAF AMD
KART 172042Z 1721/1818 24011G20KT P6SM -SHRA OVC010
     FM172200 25013KT 4SM -SHRASN OVC007
     FM180400 26012G18KT 2SM -SHSN OVC012
     FM181400 29009KT 6SM -SHSN OVC015
     FM181700 29008KT P6SM VCSH OVC015=



000
FTUS41 KBUF 171900 AAA
TAFART
TAF AMD
KART 171937Z 1720/1818 24011G20KT 6SM -SHRA OVC007
     FM172200 25013KT 2SM -SHRASN OVC007
     FM180400 26012G18KT 2SM -SHSN OVC012
     FM181400 29009KT 6SM -SHSN OVC015
     FM181700 29008KT P6SM VCSH OVC015=



000
FTUS41 KBUF 171900 AAA
TAFJHW
TAF AMD
KJHW 171936Z 1720/1818 26015G25KT 3SM -SHSN SCT008 OVC015
     FM181300 28011KT 4SM -SHSN OVC012
      AMD LTD TO CLD VIS AND WIND=



000
FTUS41 KBUF 171900 AAA
TAFBUF
TAF AMD
KBUF 171935Z 1720/1818 25017G27KT P6SM -SHSN OVC012
     FM180900 27012G22KT P6SM VCSH OVC012
     FM181300 28010KT P6SM VCSH OVC012
     FM181700 28010KT P6SM OVC012=



000
FTUS41 KBUF 171900 AAA
TAFROC
TAF AMD
KROC 171935Z 1720/1818 26017G30KT 5SM -SHRASN OVC020
     FM180000 26017G25KT 4SM -SHSN OVC012
     FM180900 27014G26KT P6SM VCSH OVC012
     FM181400 28013G19KT P6SM VCSH OVC012
     FM181600 28013KT P6SM OVC012=



000
FTUS41 KBUF 171700 RRA
TAFROC
TAF
KROC 171741Z 1718/1818 26017G26KT 5SM -SHRASN OVC020
      TEMPO 1718/1721 2SM -SN BKN008
     FM180000 26017G25KT 4SM -SHSN OVC012
     FM180900 27014G26KT P6SM VCSH OVC012
     FM181400 28013G19KT P6SM VCSH OVC012
     FM181600 28013KT P6SM OVC012=



000
FTUS41 KBUF 171700 RRA
TAFIAG
TAF
KIAG 171741Z 1718/1818 25015G24KT 2SM -SHSN OVC012
     FM172100 25017G23KT 4SM -SHSN OVC020
     FM181000 27012G21KT P6SM VCSH OVC020
     FM181500 29011KT P6SM OVC012=



000
FTUS41 KBUF 171700 RRA
TAFBUF
TAF
KBUF 171741Z 1718/1818 25017G27KT 4SM -SHSN OVC012
      TEMPO 1718/1721 3SM -SN BKN008
     FM180900 27012G22KT P6SM VCSH OVC012
     FM181300 28010KT P6SM VCSH OVC012
     FM181700 28010KT P6SM OVC012=



000
FTUS41 KBUF 171700 RRA
TAFART
TAF
KART 171741Z 1718/1818 24011KT 3SM -SHRA OVC007
     FM172200 25013KT 2SM -SHRASN OVC007
     FM180400 26012G18KT 2SM -SHSN OVC012
     FM181400 29009KT 6SM -SHSN OVC015
     FM181700 29008KT P6SM VCSH OVC015=



000
FTUS41 KBUF 171700 RRA
TAFJHW
TAF
KJHW 171741Z 1718/1818 26015G25KT 1SM -SHSN OVC006
     FM181300 28011KT 2SM -SHSN OVC012
      AMD LTD TO CLD VIS AND WIND=



000
FTUS41 KBUF 171500 AAC
TAFIAG
TAF AMD
KIAG 171540Z 1716/1812 26012G25KT 3SM -RASN BR OVC006
     FM171800 24013KT 6SM -RASN OVC020
     FM180700 27014KT 4SM -SHSN OVC020
     FM180800 27013KT 3SM -SHSN OVC020
     FM181000 27012KT 4SM -SHSN OVC020=



000
FTUS41 KBUF 171500 AAC
TAFBUF
TAF AMD
KBUF 171540Z 1716/1812 25019G28KT 3SM -RASN BR OVC008
     FM171800 24016KT P6SM -RASN OVC015
     FM180700 26013KT 4SM -SHSN OVC020
     FM180800 27012KT 3SM -SHSN OVC020=



000
FTUS41 KBUF 171400 AAA
TAFART
TAF AMD
KART 171448Z 1715/1812 24008KT 5SM -RA BKN010
     FM171600 22010KT 6SM -SHRA OVC012
     FM180200 26011KT 2SM -SHSN OVC012=



000
FTUS41 KBUF 171400 AAA
TAFJHW
TAF AMD
KJHW 171447Z 1715/1812 25014KT 1 1/2SM -SHSN OVC005
     FM171900 26016KT 2SM -SHSN BKN015
      AMD LTD TO CLD VIS AND WIND=



000
FTUS41 KBUF 171400 AAB
TAFBUF
TAF AMD
KBUF 171445Z 1715/1812 23019G28KT 6SM -RASN BR OVC008
     FM171800 24016KT P6SM -RASN OVC015
     FM180700 26013KT 4SM -SHSN OVC020
     FM180800 27012KT 3SM -SHSN OVC020=



000
FTUS41 KBUF 171400 AAA
TAFROC
TAF AMD
KROC 171445Z 1715/1812 25012G25KT P6SM -RA OVC020
     FM172100 25017KT P6SM OVC020
     FM172300 26017KT P6SM VCSH OVC020
     FM180500 27015KT 4SM -SHSN OVC020
     FM180700 27015KT 2SM -SHSN OVC020=



000
FTUS41 KBUF 171400 AAB
TAFIAG
TAF AMD
KIAG 171444Z 1715/1812 23012KT 6SM -RASN BR OVC006
     FM171800 24013KT 6SM -RASN OVC020
     FM180700 27014KT 4SM -SHSN OVC020
     FM180800 27013KT 3SM -SHSN OVC020
     FM181000 27012KT 4SM -SHSN OVC020=



000
FTUS41 KBUF 171400 AAA
TAFBUF
TAF AMD
KBUF 171443Z 1715/1812 23019G28KT 6SM -RA BR OVC008
     FM171800 24016KT P6SM VCSH OVC015
     FM180700 26013KT 4SM -SHSN OVC020
     FM180800 27012KT 3SM -SHSN OVC020=



000
FTUS41 KBUF 171200 AAA
TAFIAG
TAF AMD
KIAG 171209Z 1712/1812 23012KT P6SM -RA OVC002
     FM171800 24016KT P6SM VCSH OVC020
     FM180700 27014KT 4SM -SHSN OVC020
     FM180800 27013KT 3SM -SHSN OVC020
     FM181000 27012KT 4SM -SHSN OVC020=



000
FTUS41 KBUF 171100
TAFIAG
TAF
KIAG 171129Z 1712/1812 23013G21KT 5SM -RA OVC005
     FM171800 24016KT P6SM VCSH OVC020
     FM180700 27014KT 4SM -SHSN OVC020
     FM180800 27013KT 3SM -SHSN OVC020
     FM181000 27012KT 4SM -SHSN OVC020=



000
FTUS41 KBUF 171100
TAFJHW
TAF
KJHW 171129Z 1712/1812 25015KT P6SM BKN009 OVC016
     FM171300 25014KT 4SM -SHRA BR OVC012
     FM171600 25015KT 4SM -SHRASN OVC012
     FM171900 26016KT 2SM -SHSNRA BKN015
     FM172000 26016KT 2SM -SHSN BKN015
      AMD LTD TO CLD VIS AND WIND=



000
FTUS41 KBUF 171100
TAFBUF
TAF
KBUF 171129Z 1712/1812 23019G28KT 3SM -RA BR OVC006
     FM171800 24016KT P6SM VCSH OVC015
     FM180700 26013KT 4SM -SHSN OVC020
     FM180800 27012KT 3SM -SHSN OVC020=



000
FTUS41 KBUF 171100
TAFROC
TAF
KROC 171129Z 1712/1812 26013G21KT P6SM -RA OVC012
     FM171400 25013KT P6SM -RA OVC020
     FM172100 25017KT P6SM OVC020
     FM172300 26017KT P6SM VCSH OVC020
     FM180500 27015KT 4SM -SHSN OVC020
     FM180700 27015KT 2SM -SHSN OVC020=



000
FTUS41 KBUF 171100
TAFART
TAF
KART 171129Z 1712/1812 19007KT 5SM HZ OVC014
     FM171600 22010KT 6SM -SHRA OVC012
     FM180100 26012KT 6SM -SHRA OVC012
     FM180200 26011KT 2SM -SHSN OVC012=



000
FTUS41 KBUF 170900 AAB
TAFIAG
TAF AMD
KIAG 170918Z 1709/1806 24013KT 5SM -RA BR VCSH OVC004
     FM171400 24014KT 6SM BR VCSH OVC012
     FM171700 24016G28KT P6SM VCSH OVC012
     FM172000 25017G30KT P6SM OVC020
     FM180200 26014G21KT P6SM OVC020=



000
FTUS41 KBUF 170900 AAA
TAFART
TAF AMD
KART 170918Z 1709/1806 20006KT P6SM VCSH OVC016
     FM171200 18006KT P6SM VCSH OVC007
     FM171600 22010G20KT 6SM -SHRA OVC007
     FM180000 25013G19KT 2SM -SHRASN OVC012
     FM180100 25012KT 2SM -SHSNRA OVC012=



000
FTUS41 KBUF 170900 AAB
TAFROC
TAF AMD
KROC 170918Z 1709/1806 23005KT P6SM -DZ OVC014
     FM171200 25008KT P6SM -RA OVC012
     FM171500 25016G27KT P6SM VCSH OVC012
     FM172000 25018G31KT P6SM OVC020
     FM180100 26016G23KT P6SM OVC020
     FM180500 27014KT P6SM VCSH OVC012=



000
FTUS41 KBUF 170900 AAB
TAFBUF
TAF AMD
KBUF 170918Z 1709/1806 24018G23KT 3SM -RA BR VCSH OVC002
     FM171500 24016G28KT 6SM BR VCSH OVC012
     FM171700 24017G30KT P6SM VCSH OVC012
     FM172000 25017G30KT P6SM OVC015
     FM180200 26014G21KT P6SM OVC020=



000
FTUS41 KBUF 170900 AAA
TAFJHW
TAF AMD
KJHW 170918Z 1709/1806 24018G22KT P6SM -RA FEW007 BKN012 OVC018
     FM171100 25011KT P6SM OVC007
     FM171500 25016G29KT 2SM -SHRASN OVC007
     FM180100 27013G20KT 1/2SM SHSN OVC007
     FM180500 28011KT 2SM -SHSN OVC007
      AMD LTD TO CLD VIS AND WIND=



000
FTUS41 KBUF 170900 AAA
TAFART
TAF AMD
KART 170918Z 1709/1806 20006KT P6SM VCSH OVC016
     FM171200 18006KT P6SM VCSH OVC007
     FM171600 22010G20KT 6SM -SHRA OVC007
     FM180000 25013G19KT 2SM -SHRASN OVC012
     FM180100 25012KT 2SM -SHSNRA OVC012=



000
FTUS41 KBUF 170900 AAB
TAFIAG
TAF AMD
KIAG 170918Z 1709/1806 24013KT 5SM -RA BR VCSH OVC004
     FM171400 24014KT 6SM BR VCSH OVC012
     FM171700 24016G28KT P6SM VCSH OVC012
     FM172000 25017G30KT P6SM OVC020
     FM180200 26014G21KT P6SM OVC020=



000
FTUS41 KBUF 170900 AAB
TAFROC
TAF AMD
KROC 170918Z 1709/1806 23005KT P6SM -DZ OVC014
     FM171200 25008KT P6SM -RA OVC012
     FM171500 25016G27KT P6SM VCSH OVC012
     FM172000 25018G31KT P6SM OVC020
     FM180100 26016G23KT P6SM OVC020
     FM180500 27014KT P6SM VCSH OVC012=



000
FTUS41 KBUF 170900 AAB
TAFBUF
TAF AMD
KBUF 170918Z 1709/1806 24018G23KT 3SM -RA BR VCSH OVC002
     FM171500 24016G28KT 6SM BR VCSH OVC012
     FM171700 24017G30KT P6SM VCSH OVC012
     FM172000 25017G30KT P6SM OVC015
     FM180200 26014G21KT P6SM OVC020=



000
FTUS41 KBUF 170900 AAA
TAFJHW
TAF AMD
KJHW 170918Z 1709/1806 24018G22KT P6SM -RA FEW007 BKN012 OVC018
     FM171100 25011KT P6SM OVC007
     FM171500 25016G29KT 2SM -SHRASN OVC007
     FM180100 27013G20KT 1/2SM SHSN OVC007
     FM180500 28011KT 2SM -SHSN OVC007
      AMD LTD TO CLD VIS AND WIND=



000
FTUS41 KBUF 170800 AAA
TAFIAG
TAF AMD
KIAG 170850Z 1709/1806 23011KT P6SM -RA VCSH OVC005
     FM171400 24014KT 6SM BR VCSH OVC012
     FM171700 24016G28KT P6SM VCSH OVC012
     FM172000 25017G30KT P6SM OVC020
     FM180200 26014G21KT P6SM OVC020=



000
FTUS41 KBUF 170800 AAA
TAFBUF
TAF AMD
KBUF 170850Z 1709/1806 24014KT 1SM -RA BR VCSH OVC002
     FM171500 24016G28KT 6SM BR VCSH OVC012
     FM171700 24017G30KT P6SM VCSH OVC012
     FM172000 25017G30KT P6SM OVC015
     FM180200 26014G21KT P6SM OVC020=



000
FTUS41 KBUF 170800 AAA
TAFIAG
TAF AMD
KIAG 170850Z 1709/1806 23011KT P6SM -RA VCSH OVC005
     FM171400 24014KT 6SM BR VCSH OVC012
     FM171700 24016G28KT P6SM VCSH OVC012
     FM172000 25017G30KT P6SM OVC020
     FM180200 26014G21KT P6SM OVC020=



000
FTUS41 KBUF 170800 AAA
TAFBUF
TAF AMD
KBUF 170850Z 1709/1806 24014KT 1SM -RA BR VCSH OVC002
     FM171500 24016G28KT 6SM BR VCSH OVC012
     FM171700 24017G30KT P6SM VCSH OVC012
     FM172000 25017G30KT P6SM OVC015
     FM180200 26014G21KT P6SM OVC020=



000
FTUS41 KBUF 170700 AAA
TAFROC
TAF AMD
KROC 170720Z 1707/1806 22006KT P6SM -RA OVC015
     FM171200 25008KT P6SM -RA OVC012
     FM171500 25016G27KT P6SM VCSH OVC012
     FM172000 25018G31KT P6SM OVC020
     FM180100 26016G23KT P6SM OVC020
     FM180500 27014KT P6SM VCSH OVC012=



000
FTUS41 KBUF 170700 AAA
TAFROC
TAF AMD
KROC 170720Z 1707/1806 22006KT P6SM -RA OVC015
     FM171200 25008KT P6SM -RA OVC012
     FM171500 25016G27KT P6SM VCSH OVC012
     FM172000 25018G31KT P6SM OVC020
     FM180100 26016G23KT P6SM OVC020
     FM180500 27014KT P6SM VCSH OVC012=



000
FTUS41 KBUF 170500
TAFART
TAF
KART 170538Z 1706/1806 17006KT P6SM VCSH OVC015
     FM171200 18006KT P6SM VCSH OVC007
     FM171600 22010G20KT 6SM -SHRA OVC007
     FM180000 25013G19KT 2SM -SHRASN OVC012
     FM180100 25012KT 2SM -SHSNRA OVC012=



000
FTUS41 KBUF 170500
TAFJHW
TAF
KJHW 170538Z 1706/1806 24010KT P6SM -SHRA OVC004
     FM170800 24010KT P6SM -SHRA OVC007
     FM171100 25011KT P6SM OVC007
     FM171500 25016G29KT 2SM -SHRASN OVC007
     FM180100 27013G20KT 1/2SM SHSN OVC007
     FM180500 28011KT 2SM -SHSN OVC007
      AMD LTD TO CLD VIS AND WIND=



000
FTUS41 KBUF 170500
TAFBUF
TAF
KBUF 170538Z 1706/1806 24012KT 5SM -SHRA OVC004
     FM170800 24011KT 6SM BR VCSH OVC009
     FM171500 24016G28KT 6SM BR VCSH OVC012
     FM171700 24017G30KT P6SM VCSH OVC012
     FM172000 25017G30KT P6SM OVC015
     FM180200 26014G21KT P6SM OVC020=



000
FTUS41 KBUF 170500
TAFIAG
TAF
KIAG 170538Z 1706/1806 23011KT P6SM -SHRA OVC007
     FM170800 24013KT 6SM BR VCSH OVC007
     FM171400 24014KT 6SM BR VCSH OVC012
     FM171700 24016G28KT P6SM VCSH OVC012
     FM172000 25017G30KT P6SM OVC020
     FM180200 26014G21KT P6SM OVC020=



000
FTUS41 KBUF 170500
TAFROC
TAF
KROC 170538Z 1706/1806 21006KT P6SM OVC012
     FM171200 25008KT P6SM OVC012
     FM171500 25016G27KT P6SM VCSH OVC012
     FM172000 25018G31KT P6SM OVC020
     FM180100 26016G23KT P6SM OVC020
     FM180500 27014KT P6SM VCSH OVC012=



000
FTUS41 KBUF 170200 AAA
TAFROC
TAF AMD
KROC 170248Z 1703/1724 16006KT P6SM VCSH OVC025
     FM170800 23008KT P6SM VCSH OVC012
     FM171200 24012KT P6SM VCSH OVC012
     FM171500 25016G27KT P6SM OVC015
     FM172000 25018G31KT P6SM OVC020=



000
FTUS41 KBUF 170200 AAA
TAFJHW
TAF AMD
KJHW 170248Z 1703/1724 22010KT 4SM BR VCSH OVC010
     FM170600 24011KT 2SM -SHRA VCFG OVC008
     FM171000 24012KT 2SM BR VCFG OVC003
     FM171200 25012KT 3SM -SHRA VCFG OVC007
     FM171500 25015G25KT 4SM -SHRASN OVC007
     FM171800 26015G25KT 2SM -SHSN BKN012
      AMD LTD TO CLD VIS AND WIND=



000
FTUS41 KBUF 170200 AAC
TAFIAG
TAF AMD
KIAG 170248Z 1703/1724 22012G20KT 2SM -DZ BR OVC002
     FM170500 23012KT 6SM -SHRA BR OVC007
     FM171500 24015G27KT P6SM VCSH OVC012
     FM172000 25017G30KT P6SM OVC020=



000
FTUS41 KBUF 170200 AAA
TAFART
TAF AMD
KART 170248Z 1703/1724 VRB03KT 6SM -SHRA OVC025
     FM170500 15005KT 3SM -SHRA OVC008
     FM171200 17005KT 6SM BR VCSH OVC012
     FM171600 22010G20KT 5SM -SHRA OVC015=



000
FTUS41 KBUF 170200 AAC
TAFBUF
TAF AMD
KBUF 170248Z 1703/1724 23014G22KT 1SM -DZ BR OVC002
     FM170600 23012KT 3SM -SHRA BR OVC007
     FM171500 24016G28KT 6SM BR VCSH OVC007
     FM171600 24016G29KT P6SM VCSH OVC012
     FM172000 25017G30KT P6SM OVC015=



000
FTUS41 KBUF 170200 AAB
TAFIAG
TAF AMD
KIAG 170202Z 1702/1724 22012G20KT 2SM -DZ BR OVC003
     FM170500 23012KT 6SM -SHRA BR OVC008
     FM171500 24015G27KT P6SM VCSH OVC012
     FM172000 25017G30KT P6SM OVC020=



000
FTUS41 KBUF 170200 AAB
TAFBUF
TAF AMD
KBUF 170201Z 1702/1724 22014G22KT 2SM -DZ BR OVC003
     FM170300 23012G20KT 1SM -DZ BR OVC002
     FM170600 23012KT 3SM -SHRA BR OVC007
     FM171500 24016G28KT 6SM BR VCSH OVC007
     FM171600 24016G29KT P6SM VCSH OVC012
     FM172000 25017G30KT P6SM OVC015=



000
FTUS41 KBUF 170100 AAA
TAFIAG
TAF AMD
KIAG 170113Z 1701/1724 22012G20KT 6SM -RA BR OVC006
     FM170400 23010KT 6SM -SHRA BR OVC008
     FM171500 24015G27KT P6SM VCSH OVC012
     FM172000 25017G30KT P6SM OVC020=



000
FTUS41 KBUF 170100 AAA
TAFBUF
TAF AMD
KBUF 170112Z 1701/1724 22014G22KT 4SM -SHRA OVC006
     FM170300 23012KT P6SM VCSH OVC012
     FM170600 23011KT 5SM -SHRA OVC007
     FM171500 24016G28KT 6SM BR VCSH OVC007
     FM171600 24016G29KT P6SM VCSH OVC012
     FM172000 25017G30KT P6SM OVC015=



000
FTUS41 KBUF 162300 CCA
TAFIAG
TAF COR
KIAG 162358Z 1700/1724 18006KT 6SM -RA BR VCSH OVC009
     FM170300 19008KT 6SM -DZ BR VCSH OVC007
     FM170500 23010KT 6SM -SHRA OVC009
     FM171500 24015G27KT P6SM VCSH OVC012
     FM172000 25017G30KT P6SM OVC020=



000
FTUS41 KBUF 162300 CCA
TAFART
TAF COR
KART 162358Z 1700/1724 10004KT 2SM -SHRA OVC025
     FM170300 12005KT 6SM -SHRA OVC020
     FM170500 16006KT 3SM -SHRA OVC009
     FM170800 16005KT 4SM -SHRA OVC007
     FM171200 17005KT 6SM BR VCSH OVC012
     FM171600 22010G20KT 5SM -SHRA OVC015=



000
FTUS41 KBUF 162300 CCA
TAFROC
TAF COR
KROC 162358Z 1700/1724 16006KT P6SM VCSH OVC025
     FM170800 23008KT P6SM VCSH OVC012
     FM171200 24012KT P6SM VCSH OVC012
     FM171500 25016G27KT P6SM OVC015
     FM172000 25018G31KT P6SM OVC020=



000
FTUS41 KBUF 162300 CCA
TAFBUF
TAF COR
KBUF 162358Z 1700/1724 20010KT 4SM -SHRA OVC006
     FM170200 22011KT P6SM VCSH OVC012
     FM170500 23011KT 5SM -SHRA OVC007
     FM171500 24016G28KT 6SM BR VCSH OVC007
     FM171600 24016G29KT P6SM VCSH OVC012
     FM172000 25017G30KT P6SM OVC015=



000
FTUS41 KBUF 162300
TAFROC
TAF
KROC 162322Z 1700/1724 16006KT P6SM OVC035
     FM170300 19008KT P6SM VCSH OVC025
     FM170800 23008KT P6SM VCSH OVC012
     FM171200 24012KT P6SM VCSH OVC012
     FM171500 25016G27KT P6SM OVC015
     FM172000 25018G31KT P6SM OVC020=



000
FTUS41 KBUF 162300
TAFJHW
TAF
KJHW 162322Z 1700/1724 19007KT 4SM -SHRA BKN003 OVC009
     FM170600 24011KT 2SM -SHRA VCFG OVC003
     FM171000 24012KT 2SM BR VCFG OVC003
     FM171200 25012KT 3SM -SHRA VCFG OVC007
     FM171500 25015G25KT 4SM -SHRASN OVC007
     FM171800 26015G25KT 2SM -SHSN BKN012
      AMD LTD TO CLD VIS AND WIND=



000
FTUS41 KBUF 162300
TAFART
TAF
KART 162322Z 1700/1724 04004KT 2SM -SHRA OVC025
     FM170300 12005KT 6SM -SHRA OVC020
     FM170500 16006KT 3SM -SHRA OVC009
     FM170800 16005KT 4SM -SHRA OVC007
     FM171200 17005KT 6SM BR VCSH OVC012
     FM171600 22010G20KT 5SM -SHRA OVC015=



000
FTUS41 KBUF 162300
TAFBUF
TAF
KBUF 162322Z 1700/1724 20010KT 6SM -SHRA OVC015
     FM170300 22011KT P6SM VCSH OVC012
     FM170500 23011KT 5SM -SHRA OVC007
     FM171500 24016G28KT 6SM BR VCSH OVC007
     FM171600 24016G29KT P6SM VCSH OVC012
     FM172000 25017G30KT P6SM OVC015=



000
FTUS41 KBUF 162300
TAFIAG
TAF
KIAG 162322Z 1700/1724 18006KT 6SM -DZ BR VCSH OVC012
     FM170200 19008KT 6SM -DZ BR VCSH OVC007
     FM170500 23010KT 6SM -SHRA OVC009
     FM171500 24015G27KT P6SM VCSH OVC012
     FM172000 25017G30KT P6SM OVC020=



000
FTUS41 KBUF 162100 AAB
TAFART
TAF AMD
KART 162119Z 1621/1718 05005KT 2SM -RA BR BKN025 OVC060
     FM162300 13006KT 6SM -SHRA BR OVC020
     FM170600 17005KT 6SM BR VCSH OVC025
     FM171500 21009KT 6SM -SHRA OVC012=



000
FTUS41 KBUF 162000 AAA
TAFBUF
TAF AMD
KBUF 162050Z 1621/1718 16006KT 6SM -SHRA BR BKN025
     FM170200 21009KT 6SM -SHRA BR OVC012
     FM170900 24013KT 6SM -SHRA OVC012
     FM171500 24016G27KT 6SM -SHRA OVC012=



000
FTUS41 KBUF 162000 AAA
TAFJHW
TAF AMD
KJHW 162050Z 1621/1718 16010KT 3SM -SHRA BR OVC003
     FM170000 20009KT 6SM -SHRA BR OVC003
     FM170500 24010KT 6SM -SHRA BR OVC003
     FM171300 25015KT 4SM -SHRASN OVC007
     FM171500 25016G28KT 4SM -SHRASN BKN007
      AMD LTD TO CLD VIS AND WIND=



000
FTUS41 KBUF 162000 AAA
TAFROC
TAF AMD
KROC 162050Z 1621/1718 15009KT 6SM -SHRA BR OVC025
     FM170200 19007KT 6SM -SHRA BR OVC020
     FM170800 23008KT 6SM -SHRA BR OVC012
     FM171500 25016G26KT P6SM VCSH OVC012=



000
FTUS41 KBUF 162000 AAA
TAFIAG
TAF AMD
KIAG 162050Z 1621/1718 13005KT 6SM -SHRA BR OVC015
     FM162300 17006KT 6SM -SHRA BR OVC012
     FM170300 21009KT 6SM -SHRA BR OVC012
     FM170900 24013KT 6SM -SHRA OVC012
     FM171500 24015G26KT 6SM -SHRA OVC012=



000
FTUS41 KBUF 162000 AAA
TAFART
TAF AMD
KART 162050Z 1621/1718 05005KT 6SM -SHRA BR OVC060
     FM162200 13006KT 6SM -SHRA BR OVC020
     FM171000 17005KT 6SM -SHRA BR OVC012
     FM171500 21009KT 6SM -SHRA OVC012=



000
FTUS41 KBUF 161700
TAFIAG
TAF
KIAG 161739Z 1618/1718 10005KT 3SM -SHRA BR SCT025 BKN035
     FM162000 13005KT 6SM -SHRA BR OVC015
     FM162300 17006KT 6SM -SHRA OVC012
     FM170300 21009KT 6SM -SHRA OVC012
     FM170900 24013KT 6SM -SHRA OVC012
     FM171500 24015G26KT 6SM -SHRA OVC012=



000
FTUS41 KBUF 161700
TAFBUF
TAF
KBUF 161739Z 1618/1718 12005KT 5SM -SHRA BR SCT025 BKN050
     FM162000 16006KT 6SM -SHRA BR SCT025 BKN040
     FM170200 21009KT 6SM -SHRA OVC012
     FM170900 24013KT 6SM -SHRA OVC012
     FM171500 24016G27KT 6SM -SHRA OVC012=



000
FTUS41 KBUF 161700
TAFJHW
TAF
KJHW 161739Z 1618/1718 16010KT 3SM -SHRA BR OVC003
     FM170000 20009KT 6SM -SHRA OVC003
     FM170500 24010KT 6SM -SHRA OVC003
     FM171300 25015KT 4SM -SHRASN OVC007
     FM171500 25016G28KT 4SM -SHRASN BKN007
      AMD LTD TO CLD VIS AND WIND=



000
FTUS41 KBUF 161700
TAFROC
TAF
KROC 161739Z 1618/1718 17006KT 5SM -SHRA BR OVC040
     FM162000 15009KT 6SM -SHRA OVC025
     FM170200 19007KT 6SM -SHRA OVC020
     FM170800 23008KT 6SM -SHRA OVC012
     FM171500 25016G26KT P6SM VCSH OVC012=



000
FTUS41 KBUF 161700
TAFART
TAF
KART 161739Z 1618/1718 09005KT P6SM OVC020
     FM161900 11005KT 6SM -SHRA OVC060
     FM162200 13006KT 6SM -SHRA OVC020
     FM171000 17005KT 6SM -SHRA OVC012
     FM171500 21009KT 6SM -SHRA OVC012=



000
FTUS41 KBUF 161500 AAA
TAFART
TAF AMD
KART 161521Z 1615/1712 08004KT P6SM OVC015
     FM162000 11004KT 6SM -SHRA OVC025
     FM170500 16006KT 6SM -SHRA OVC012=



000
FTUS41 KBUF 161500 AAA
TAFROC
TAF AMD
KROC 161521Z 1615/1712 14006KT P6SM VCSH OVC012
     FM161600 15008KT 6SM -SHRA OVC025
      TEMPO 1616/1620 4SM -RA BR SCT030 OVC050
     FM170000 18007KT P6SM VCSH OVC015
     FM170800 22006KT P6SM VCSH OVC020=



000
FTUS41 KBUF 161500 AAA
TAFIAG
TAF AMD
KIAG 161521Z 1615/1712 08006KT 5SM -SHRA BKN025 OVC040
      TEMPO 1615/1618 4SM -RA BR SCT030 OVC050
     FM162300 18006KT 6SM -SHRA OVC012
     FM170000 19007KT P6SM VCSH OVC012
     FM170100 20009KT 6SM -SHRA OVC012=



000
FTUS41 KBUF 161500 AAA
TAFBUF
TAF AMD
KBUF 161521Z 1615/1712 11008KT 6SM -SHRA OVC015
      TEMPO 1615/1618 4SM -RA BR SCT030 OVC050
     FM162200 18005KT P6SM VCSH OVC012
     FM170100 22008KT 6SM -SHRA OVC012=



000
FTUS41 KBUF 161500 AAA
TAFJHW
TAF AMD
KJHW 161521Z 1615/1712 14012KT 5SM -SHRA BR BKN015
      TEMPO 1615/1618 14012G18KT 4SM -RA BR BKN006
     FM171000 25011KT 6SM -SHRA OVC007
      AMD LTD TO CLD VIS AND WIND=



000
FTUS41 KBUF 161200 CCA
TAFIAG
TAF COR
KIAG 161213Z 1612/1712 09006KT 5SM BR VCSH BKN002 OVC040
     FM161400 13006KT 5SM -SHRA BKN025 OVC040
     FM162300 18006KT 6SM -SHRA OVC012
     FM170000 19007KT P6SM VCSH OVC012
     FM170100 20009KT 6SM -SHRA OVC012=



000
FTUS41 KBUF 161100
TAFIAG
TAF
KIAG 161131Z 1612/1712 13006KT 5SM -SHRA OVC025
     FM162300 18006KT 6SM -SHRA OVC012
     FM170000 19007KT P6SM VCSH OVC012
     FM170100 20009KT 6SM -SHRA OVC012=



000
FTUS41 KBUF 161100
TAFROC
TAF
KROC 161131Z 1612/1712 14006KT P6SM VCSH OVC012
     FM161700 15008KT 6SM -SHRA OVC025
     FM170000 18007KT P6SM VCSH OVC015
     FM170800 22006KT P6SM VCSH OVC020=



000
FTUS41 KBUF 161100
TAFJHW
TAF
KJHW 161131Z 1612/1712 14006KT 5SM -SHRA BR OVC050
     FM161300 14007KT 5SM -SHRA BR OVC025
     FM161600 15009KT 5SM -SHRA OVC007
     FM171000 25011KT 6SM -SHRA OVC007
      AMD LTD TO CLD VIS AND WIND=



000
FTUS41 KBUF 161100
TAFART
TAF
KART 161131Z 1612/1712 10004KT P6SM OVC015
     FM162000 11004KT 6SM -SHRA OVC025
     FM170500 16006KT 6SM -SHRA OVC012=



000
FTUS41 KBUF 161100
TAFBUF
TAF
KBUF 161131Z 1612/1712 14005KT 6SM -SHRA BR OVC050
     FM161500 15005KT 6SM -SHRA OVC015
     FM162200 18005KT P6SM VCSH OVC012
     FM170100 22008KT 6SM -SHRA OVC012=



000
FTUS41 KBUF 160900 AAC
TAFIAG
TAF AMD
KIAG 160906Z 1609/1706 12005KT 1/2SM FG OVC002
      TEMPO 1609/1610 4SM BR OVC007
     FM161000 11006KT P6SM OVC015
     FM161130 11006KT 5SM -RA OVC050
     FM161230 12006KT P6SM VCSH OVC030
     FM161400 14007KT 6SM -SHRA OVC015
     FM162100 18008KT P6SM VCSH OVC015
     FM170400 22008KT P6SM OVC015=



000
FTUS41 KBUF 160900 AAC
TAFBUF
TAF AMD
KBUF 160905Z 1609/1706 09005KT 6SM BR FEW002 OVC200
     FM161115 12006KT 5SM -RA OVC050
     FM161230 13006KT P6SM VCSH OVC030
     FM161400 15007KT 6SM -SHRA OVC015
     FM162100 18008KT P6SM VCSH OVC015
     FM170400 22010KT P6SM OVC015=



000
FTUS41 KBUF 160900 AAA
TAFART
TAF AMD
KART 160903Z 1609/1706 12005KT P6SM OVC011
     FM161300 13007KT P6SM OVC025
     FM161400 13007KT P6SM OVC035
     FM161700 12007KT P6SM OVC060
     FM162000 14007KT 6SM -SHRA OVC015=



000
FTUS41 KBUF 160900 AAA
TAFJHW
TAF AMD
KJHW 160902Z 1609/1706 15008KT 3SM BR OVC007
      TEMPO 1609/1610 3/4SM BR OVC005
     FM161030 16008KT 5SM -RA BKN007 OVC050
     FM161200 16008KT 5SM BR VCSH OVC035
     FM161400 16010KT 6SM -SHRA OVC007
     FM162000 18010KT P6SM VCSH OVC015
     FM170400 23008KT P6SM VCSH OVC015
      AMD LTD TO CLD VIS AND WIND=



000
FTUS41 KBUF 160800 AAA
TAFROC
TAF AMD
KROC 160858Z 1609/1706 13006KT P6SM OVC012
     FM161100 14006KT P6SM OVC050
     FM161600 16008KT 6SM -SHRA OVC015
     FM170200 19007KT P6SM VCSH BKN025
     FM170400 20007KT P6SM OVC025=



000
FTUS41 KBUF 160800 AAB
TAFBUF
TAF AMD
KBUF 160858Z 1609/1706 12005KT 6SM BR FEW002 OVC200
     FM161100 12006KT P6SM OVC050
     FM161400 15007KT 6SM -SHRA OVC015
     FM162100 18008KT P6SM VCSH OVC015
     FM170400 22010KT P6SM OVC015=



000
FTUS41 KBUF 160800 AAB
TAFIAG
TAF AMD
KIAG 160857Z 1609/1706 12005KT 1/2SM FG OVC002
      TEMPO 1609/1610 4SM BR OVC007
     FM161000 11006KT P6SM OVC015
     FM161100 11006KT P6SM OVC050
     FM161400 14007KT 6SM -SHRA OVC015
     FM162100 18008KT P6SM VCSH OVC015
     FM170400 22008KT P6SM OVC015=



000
FTUS41 KBUF 160800 AAA
TAFIAG
TAF AMD
KIAG 160801Z 1608/1706 12005KT 1/2SM FG OVC002
      TEMPO 1608/1609 4SM BR OVC007
     FM160900 11006KT P6SM OVC015
     FM161100 11006KT P6SM OVC050
     FM161400 14007KT 6SM -SHRA OVC015
     FM162100 18008KT P6SM VCSH OVC015
     FM170400 22008KT P6SM OVC015=



000
FTUS41 KBUF 160600 AAA
TAFBUF
TAF AMD
KBUF 160612Z 1606/1706 12005KT 6SM BR SCT002
      TEMPO 1606/1608 1SM BR OVC003
     FM160800 12005KT P6SM OVC015
     FM161100 12006KT P6SM OVC050
     FM161400 15007KT 6SM -SHRA OVC015
     FM162100 18008KT P6SM VCSH OVC015
     FM170400 22010KT P6SM OVC015=



000
FTUS41 KBUF 160500
TAFROC
TAF
KROC 160520Z 1606/1706 13007KT P6SM OVC007
     FM160800 13006KT P6SM OVC012
     FM161100 14006KT P6SM OVC050
     FM161600 16008KT 6SM -SHRA OVC015
     FM170200 19007KT P6SM VCSH BKN025
     FM170400 20007KT P6SM OVC025=



000
FTUS41 KBUF 160500
TAFJHW
TAF
KJHW 160520Z 1606/1706 14007KT 3SM BR OVC003
     FM160700 15008KT 3SM BR OVC007
     FM161000 16008KT 3SM BR OVC020
     FM161200 16008KT 3SM BR VCSH OVC035
     FM161400 16010KT 6SM -SHRA OVC007
     FM162000 18010KT P6SM VCSH OVC015
     FM170400 23008KT P6SM VCSH OVC015
      AMD LTD TO CLD VIS AND WIND=



000
FTUS41 KBUF 160500
TAFBUF
TAF
KBUF 160520Z 1606/1706 12005KT 4SM BR OVC007
      TEMPO 1606/1608 1SM BR OVC003
     FM160800 12005KT P6SM OVC015
     FM161100 12006KT P6SM OVC050
     FM161400 15007KT 6SM -SHRA OVC015
     FM162100 18008KT P6SM VCSH OVC015
     FM170400 22010KT P6SM OVC015=



000
FTUS41 KBUF 160500
TAFIAG
TAF
KIAG 160520Z 1606/1706 12005KT 3SM BR OVC007
      TEMPO 1606/1608 1/2SM FG OVC002
     FM160800 11006KT P6SM OVC015
     FM161100 11006KT P6SM OVC050
     FM161400 14007KT 6SM -SHRA OVC015
     FM162100 18008KT P6SM VCSH OVC015
     FM170400 22008KT P6SM OVC015=



000
FTUS41 KBUF 160500
TAFART
TAF
KART 160520Z 1606/1706 VRB03KT P6SM OVC007
     FM161000 12005KT P6SM OVC012
     FM161300 13007KT P6SM OVC025
     FM161400 13007KT P6SM OVC035
     FM161700 12007KT P6SM OVC060
     FM162000 14007KT 6SM -SHRA OVC015=



000
FTUS41 KBUF 160300 AAB
TAFROC
TAF AMD
KROC 160300Z 1603/1624 14005KT P6SM OVC007
     FM160600 15005KT P6SM OVC012
     FM161400 14007KT P6SM VCSH OVC020
     FM161600 16008KT 6SM -SHRA OVC015=



000
FTUS41 KBUF 160300 AAD
TAFIAG
TAF AMD
KIAG 160300Z 1603/1624 11006KT 4SM BR SCT002 OVC012
      TEMPO 1603/1606 1/2SM FG OVC002
     FM160600 11005KT P6SM OVC012
     FM161400 12007KT 6SM -SHRA OVC012
     FM162100 18008KT P6SM VCSH OVC015=



000
FTUS41 KBUF 160300 AAC
TAFBUF
TAF AMD
KBUF 160300Z 1603/1624 12006KT 3SM BR BKN002
      TEMPO 1603/1606 1/2SM FG OVC001
     FM160600 12006KT P6SM OVC012
     FM161400 14007KT 6SM -SHRA OVC012
     FM162100 18008KT P6SM VCSH OVC015=



000
FTUS41 KBUF 160300 AAB
TAFJHW
TAF AMD
KJHW 160300Z 1603/1624 VRB03KT 1/4SM FG OVC002
     FM160600 15007KT 2SM BR OVC007
     FM161200 16008KT 3SM BR OVC007
     FM161400 16009KT 3SM -SHRA BR OVC007
     FM162000 18010KT P6SM VCSH OVC007
      AMD LTD TO CLD VIS AND WIND=



000
FTUS41 KBUF 160300 AAB
TAFART
TAF AMD
KART 160300Z 1603/1624 VRB03KT 2SM BR OVC006
     FM160600 VRB03KT P6SM OVC012
     FM161200 13006KT P6SM OVC025
     FM162000 13008KT 6SM -SHRA OVC012=



000
FTUS41 KBUF 160100 AAB
TAFBUF
TAF AMD
KBUF 160131Z 1602/1624 12007KT 1/2SM FG OVC002
     FM160300 12006KT P6SM OVC012
     FM161400 14007KT 6SM -SHRA OVC012
     FM162100 18008KT P6SM VCSH OVC015=



000
FTUS41 KBUF 160100 AAC
TAFIAG
TAF AMD
KIAG 160118Z 1601/1624 12005KT 1/2SM FG OVC002
     FM160300 11005KT P6SM OVC012
     FM161400 12007KT 6SM -SHRA OVC012
     FM162100 18008KT P6SM VCSH OVC015=



000
FTUS41 KBUF 160100 AAA
TAFART
TAF AMD
KART 160103Z 1601/1624 VRB03KT 6SM BR OVC009
     FM160300 VRB03KT P6SM OVC015
     FM161200 13006KT P6SM OVC025
     FM162000 13008KT 6SM -SHRA OVC012=



000
FTUS41 KBUF 160100 AAA
TAFROC
TAF AMD
KROC 160103Z 1601/1624 17007KT P6SM OVC009
     FM160300 15005KT P6SM OVC012
     FM161400 14007KT P6SM VCSH OVC020
     FM161600 16008KT 6SM -SHRA OVC015=



000
FTUS41 KBUF 160100 AAB
TAFIAG
TAF AMD
KIAG 160102Z 1601/1624 12005KT 3/4SM BR OVC003
     FM160300 11005KT P6SM OVC012
     FM161400 12007KT 6SM -SHRA OVC012
     FM162100 18008KT P6SM VCSH OVC015=



000
FTUS41 KBUF 160100 AAA
TAFBUF
TAF AMD
KBUF 160102Z 1601/1624 12007KT 2SM BR OVC002
     FM160300 12006KT P6SM OVC012
     FM161400 14007KT 6SM -SHRA OVC012
     FM162100 18008KT P6SM VCSH OVC015=



000
FTUS41 KBUF 160000 AAA
TAFIAG
TAF AMD
KIAG 160026Z 1600/1624 11004KT 6SM BR OVC007
      TEMPO 1600/1602 3SM BR OVC003
     FM160200 11005KT P6SM OVC012
     FM161400 12007KT 6SM -SHRA OVC012
     FM162100 18008KT P6SM VCSH OVC015=



000
FTUS41 KBUF 160000 AAA
TAFJHW
TAF AMD
KJHW 160025Z 1600/1624 VRB03KT 1/4SM FG OVC002
     FM160400 15007KT 2SM BR OVC007
     FM161200 16008KT 3SM BR OVC007
     FM161400 16009KT 3SM -SHRA BR OVC007
     FM162000 18010KT P6SM VCSH OVC007
      AMD LTD TO CLD VIS AND WIND=



000
FTUS41 KBUF 152300
TAFBUF
TAF
KBUF 152338Z 1600/1624 12007KT 6SM BR OVC007
      TEMPO 1600/1602 3SM BR OVC003
     FM160200 12006KT P6SM OVC012
     FM161400 14007KT 6SM -SHRA OVC012
     FM162100 18008KT P6SM VCSH OVC015=



000
FTUS41 KBUF 152300
TAFART
TAF
KART 152338Z 1600/1624 VRB03KT P6SM OVC012
     FM160300 VRB03KT P6SM OVC015
     FM161200 13006KT P6SM OVC025
     FM162000 13008KT 6SM -SHRA OVC012=



000
FTUS41 KBUF 152300
TAFROC
TAF
KROC 152338Z 1600/1624 18004KT P6SM OVC010
     FM160300 15005KT P6SM OVC012
     FM161400 14007KT P6SM VCSH OVC020
     FM161600 16008KT 6SM -SHRA OVC015=



000
FTUS41 KBUF 152300
TAFIAG
TAF
KIAG 152338Z 1600/1624 11004KT 6SM BR OVC007
     FM160200 11005KT P6SM OVC012
     FM161400 12007KT 6SM -SHRA OVC012
     FM162100 18008KT P6SM VCSH OVC015=



000
FTUS41 KBUF 152300
TAFJHW
TAF
KJHW 152338Z 1600/1624 VRB03KT 1/2SM FG OVC002
     FM160400 15007KT 2SM BR OVC007
     FM161200 16008KT 3SM BR OVC007
     FM161400 16009KT 3SM -SHRA BR OVC007
     FM162000 18010KT P6SM VCSH OVC007
      AMD LTD TO CLD VIS AND WIND=



000
FTUS41 KBUF 152000 AAA
TAFIAG
TAF AMD
KIAG 152035Z 1521/1618 12005KT 4SM BR OVC006
      TEMPO 1521/1524 P6SM NSW SCT006 OVC018
     FM160000 14004KT P6SM OVC020
     FM160500 11006KT P6SM OVC050
     FM161200 10005KT 6SM -SHRA OVC035=



000
FTUS41 KBUF 152000 AAA
TAFBUF
TAF AMD
KBUF 152035Z 1521/1618 13005KT P6SM BKN008 OVC018
      TEMPO 1522/1524 P6SM SCT008 OVC018
     FM160000 VRB03KT P6SM OVC012
     FM160400 12004KT P6SM BKN045 OVC100
     FM161300 11005KT 6SM -SHRA OVC035=



000
FTUS41 KBUF 152000 AAA
TAFROC
TAF AMD
KROC 152035Z 1521/1618 00000KT P6SM OVC008
      TEMPO 1523/1603 SCT008 OVC018
     FM160300 12004KT P6SM OVC020
     FM161600 14006KT 6SM -SHRA OVC030=



000
FTUS41 KBUF 152000 AAA
TAFART
TAF AMD
KART 152035Z 1521/1618 21006KT P6SM OVC013
     FM161100 08004KT P6SM SCT015 OVC060=



000
FTUS41 KBUF 152000 AAA
TAFJHW
TAF AMD
KJHW 152035Z 1521/1618 16004KT 1/4SM FG OVC002
      TEMPO 1523/1603 3SM BR BKN008 OVC012
     FM161200 13006KT 3SM -SHRA BR OVC007
      AMD LTD TO CLD VIS AND WIND=



    US Dept of Commerce
    National Oceanic and Atmospheric Administration
    National Weather Service
    1325 East West Highway
    Silver Spring, MD 20910
    Page Author: NWS Internet Services Team
Disclaimer
Information Quality
Credits
Glossary
Privacy Policy
Freedom of Information Act (FOIA)
About Us
Career Opportunities